Dauntless Aviation
Greetings, Guest! To participate, [sign up for a free account] or [log in]
Airports Europe United Kingdom
EGLC
LCY

London City

London, UNITED KINGDOM

Airport Info
Edit

Location

Latitude / Longitude: 51°30'18"N / 0°3'12"E
  51°30.3'N / 0°3.21'E
  51.5050 / 0.0535

Nearby radio navigation aids

LCY CITY NDB on field.

Runway Information

Runway 10 /28

Dimensions: 4948 x 98 ft.
Surface: ASP
 
Runway 10
Runway 28
Latitude: 51.505528 51.504922
Longitude: 0.045753 0.064953
Elevation: 16 ft. 16 ft.
Runway true heading: 91.1 271.1
 

Instrument Procedures

  Control Zone and Control Area Chart
  Aircraft Parking/Docking Chart
  Aerodrome Chart

STARs (Standard Terminal Arrivals)

  STAR via SPEAR (Northwest)
  STAR via ALKIN (South)
  STAR via SPEAR (East)
  STAR via SPEAR (West)
  STAR via SPEAR (Alternate Holding at LOGAN and ALKIN)

IAPs (Instrument Approach Procedures)

  LOC/DME/NDB (L) Rwy 27 (Aircraft CAT A/B/C)
  Visual Approach Profile Rwy 27
  ILS (5.5°GP) /DME/NDB (L) Rwy 27 (Aircraft CAT A/B/C)
  Visual Approach Profile Rwy 09
  LOC/DME/NDB (L) Rwy 09
  ATC Surveillance Minimum Altitude Chart
  ILS (5.5°GP) /DME/NDB (L) Rwy 09 (Aircraft CAT A/B/C)

Departure Procedures

  SID DOVER/LYDD
  SID CLACTON
  SID SOUTHAMPTON
  SID BROOKMANS PARK/COMPTON
Satellite photo at:
Airport distance calculator
From:
Weather Reports

METAR

EGLC

EGLC 020450Z 23008KT 9999 FEW016 19/16 Q1017
EGWU
17.8nm W
EGWU 020450Z AUTO 22003KT 9999 // BKN180/// 18/15 Q1016
EGLL
18.9nm SW
EGLL 020450Z 22006KT 9000 SCT010 18/16 Q1017
EGSS
23.5nm N
EGSS 020450Z 27004KT 9000 NSC 17/16 Q1016
EGKK
23.8nm S
EGKK 020450Z VRB02KT 5000 HZ BKN007 16/15 Q1017
EGMC
24.4nm NE
EGMC 020450Z 25009KT CAVOK 19/14 Q1016

TAF

EGLC
TAF AMD EGLC 020408Z 0204/0212 25009KT CAVOK TEMPO 0204/0206 8000 PROB40 TEMPO 0210/0212 4000 TSGR BKN049CB
EGWU
17.8nm W
TAF EGWU 012239Z 0200/0218 22008KT CAVOK PROB30 TEMPO 0205/0208 SCT010 PROB40 TEMPO 0208/0215 7000 TSRA BKN090CB
EGLL
18.9nm SW
TAF AMD EGLL 020249Z 0202/0306 24005KT CAVOK TEMPO 0202/0206 8000 BKN009 PROB30 TEMPO 0210/0216 5000 TSGR SCT010 BKN048CB PROB30 TEMPO 0300/0306 9000
EGSS
23.5nm N
TAF EGSS 012258Z 0200/0306 22006KT CAVOK PROB30 0203/0206 7000 PROB40 TEMPO 0211/0216 4000 TSRAGS BKN045CB PROB30 TEMPO 0216/0220 7000 SHRA BKN020
EGKK
23.8nm S
TAF AMD EGKK 020310Z 0203/0306 22006KT CAVOK TEMPO 0203/0207 6000 BKN004 PROB30 0203/0206 4000 BR PROB40 TEMPO 0208/0214 4000 TSRAGR SCT010 BKN049CB PROB30 TEMPO 0214/0218 7000 SHRA BKN020 PROB30 0300/0306 5000 BR
EGMC
24.4nm NE
TAF EGMC 020159Z 0203/0212 23007KT CAVOK PROB30 TEMPO 0211/0212 4000 TSRAGR BKN049CB
Safelog

 

Dauntless Aviation

© 2007-2015 Dauntless Aviation, all rights reserved
Information provided via PilotNav comes from a variety of official and unofficial data sources. As errors are possible, do not use PilotNav for primary flight planning purposes. Verify any information that you receive via PilotNav with current and canonical charts and other official documents. The material in this database is subject to database copyrights held by Dauntless Aviation and may not be copied without the express permission of Dauntless Aviation - licenses for use of part of all of this data are available for purchase; enquire via the Dauntless Aviation helpdesk. A number of mechanisms and markers exist in the database to protect against and identify infringement / copyright. Automated queries against this website are stictly prohibited, and all activity is logged and analyzed.